Time,TemperatureF,DewpointF,PressureIn,WindDirection,WindDirectionDegrees,WindSpeedMPH,WindSpeedGustMPH,Humidity,HourlyPrecipIn,Conditions,Clouds,dailyrainin,SoftwareType,DateUTC
2013-03-04 00:22:00,-999.0,-99.9,-100.00,North,-999,3.0,15.0,-999,-99.99,,,-99.99,,2013-03-04 05:22:00,
2013-03-04 00:32:00,-999.0,-99.9,-100.00,North,-999,3.0,15.0,-999,-99.99,,,-99.99,,2013-03-04 05:32:00,
2013-03-04 00:43:00,-999.0,-99.9,-100.00,North,-999,3.0,15.0,-999,-99.99,,,-99.99,,2013-03-04 05:43:00,
2013-03-04 01:22:00,-999.0,-99.9,-100.00,NNW,346,7.0,10.0,-999,-99.99,,,-99.99,,2013-03-04 06:22:00,
2013-03-04 01:32:00,-999.0,-99.9,-100.00,NNW,346,7.0,10.0,-999,-99.99,,,-99.99,,2013-03-04 06:32:00,
2013-03-04 01:42:00,-999.0,-99.9,-100.00,NNW,346,7.0,10.0,-999,-99.99,,,-99.99,,2013-03-04 06:42:00,
2013-03-04 01:52:00,-999.0,-99.9,-100.00,NNW,346,7.0,10.0,-999,-99.99,,,-99.99,,2013-03-04 06:52:00,
2013-03-04 02:32:00,-999.0,-99.9,-100.00,NNW,344,6.0,8.0,-999,-99.99,,,-99.99,,2013-03-04 07:32:00,
2013-03-04 02:42:00,-999.0,-99.9,-100.00,NNW,344,6.0,8.0,-999,-99.99,,,-99.99,,2013-03-04 07:42:00,
2013-03-04 02:52:00,-999.0,-99.9,-100.00,NNW,344,6.0,8.0,-999,-99.99,,,-99.99,,2013-03-04 07:52:00,
2013-03-04 02:53:00,-999.0,-99.9,-100.00,North,-999,4.0,11.0,-999,-99.99,,,-99.99,,2013-03-04 07:53:00,
2013-03-04 03:22:00,-999.0,-99.9,-100.00,North,-999,4.0,11.0,-999,-99.99,,,-99.99,,2013-03-04 08:22:00,
2013-03-04 03:32:00,-999.0,-99.9,-100.00,North,-999,4.0,11.0,-999,-99.99,,,-99.99,,2013-03-04 08:32:00,
2013-03-04 03:42:00,-999.0,-99.9,-100.00,North,-999,4.0,11.0,-999,-99.99,,,-99.99,,2013-03-04 08:42:00,
2013-03-04 05:22:00,-999.0,-99.9,-100.00,West,262,3.0,12.0,-999,-99.99,,,-99.99,,2013-03-04 10:22:00,
2013-03-04 05:32:00,-999.0,-99.9,-100.00,West,262,3.0,12.0,-999,-99.99,,,-99.99,,2013-03-04 10:32:00,
2013-03-04 05:42:00,-999.0,-99.9,-100.00,West,262,3.0,12.0,-999,-99.99,,,-99.99,,2013-03-04 10:42:00,
2013-03-04 05:52:00,-999.0,-99.9,-100.00,West,262,3.0,12.0,-999,-99.99,,,-99.99,,2013-03-04 10:52:00,
2013-03-04 06:32:00,-999.0,-99.9,-100.00,NW,312,8.0,14.0,-999,-99.99,,,-99.99,,2013-03-04 11:32:00,
2013-03-04 06:42:00,-999.0,-99.9,-100.00,NW,312,8.0,14.0,-999,-99.99,,,-99.99,,2013-03-04 11:42:00,
2013-03-04 06:52:00,-999.0,-99.9,-100.00,NW,312,8.0,14.0,-999,-99.99,,,-99.99,,2013-03-04 11:52:00,
2013-03-04 06:53:00,-999.0,-99.9,-100.00,North,-999,4.0,13.0,-999,-99.99,,,-99.99,,2013-03-04 11:53:00,
2013-03-04 07:22:00,-999.0,-99.9,-100.00,North,-999,4.0,13.0,-999,-99.99,,,-99.99,,2013-03-04 12:22:00,
2013-03-04 07:32:00,-999.0,-99.9,-100.00,North,-999,4.0,13.0,-999,-99.99,,,-99.99,,2013-03-04 12:32:00,
2013-03-04 07:43:00,-999.0,-99.9,-100.00,North,-999,4.0,13.0,-999,-99.99,,,-99.99,,2013-03-04 12:43:00,
2013-03-04 08:22:00,-999.0,-99.9,-100.00,NW,305,15.0,17.0,-999,-99.99,,,-99.99,,2013-03-04 13:22:00,
2013-03-04 08:32:00,-999.0,-99.9,-100.00,NW,305,15.0,17.0,-999,-99.99,,,-99.99,,2013-03-04 13:32:00,
2013-03-04 08:42:00,-999.0,-99.9,-100.00,NW,305,15.0,17.0,-999,-99.99,,,-99.99,,2013-03-04 13:42:00,
2013-03-04 08:52:00,-999.0,-99.9,-100.00,NW,305,15.0,17.0,-999,-99.99,,,-99.99,,2013-03-04 13:52:00,
2013-03-04 09:22:00,-999.0,-99.9,-100.00,NW,309,6.0,15.0,-999,-99.99,,,-99.99,,2013-03-04 14:22:00,
2013-03-04 09:32:00,-999.0,-99.9,-100.00,NW,309,6.0,15.0,-999,-99.99,,,-99.99,,2013-03-04 14:32:00,
2013-03-04 09:42:00,-999.0,-99.9,-100.00,NW,309,6.0,15.0,-999,-99.99,,,-99.99,,2013-03-04 14:42:00,
2013-03-04 09:52:00,-999.0,-99.9,-100.00,NW,309,6.0,15.0,-999,-99.99,,,-99.99,,2013-03-04 14:52:00,
2013-03-04 10:22:00,-999.0,-99.9,-100.00,NW,322,5.0,12.0,-999,-99.99,,,-99.99,,2013-03-04 15:22:00,
2013-03-04 10:32:00,-999.0,-99.9,-100.00,NW,322,5.0,12.0,-999,-99.99,,,-99.99,,2013-03-04 15:32:00,
2013-03-04 10:42:00,-999.0,-99.9,-100.00,NW,322,5.0,12.0,-999,-99.99,,,-99.99,,2013-03-04 15:42:00,
2013-03-04 10:52:00,-999.0,-99.9,-100.00,NW,322,5.0,12.0,-999,-99.99,,,-99.99,,2013-03-04 15:52:00,
2013-03-04 11:32:00,-999.0,-99.9,-100.00,NNE,13,4.0,22.0,-999,-99.99,,,-99.99,,2013-03-04 16:32:00,
2013-03-04 11:42:00,-999.0,-99.9,-100.00,NNE,13,4.0,22.0,-999,-99.99,,,-99.99,,2013-03-04 16:42:00,
2013-03-04 11:52:00,-999.0,-99.9,-100.00,NNE,13,4.0,22.0,-999,-99.99,,,-99.99,,2013-03-04 16:52:00,
2013-03-04 12:22:00,-999.0,-99.9,-100.00,NW,322,12.0,18.0,-999,-99.99,,,-99.99,,2013-03-04 17:22:00,
2013-03-04 12:32:00,-999.0,-99.9,-100.00,NW,322,12.0,18.0,-999,-99.99,,,-99.99,,2013-03-04 17:32:00,
2013-03-04 12:42:00,-999.0,-99.9,-100.00,NW,322,12.0,18.0,-999,-99.99,,,-99.99,,2013-03-04 17:42:00,
2013-03-04 12:52:00,-999.0,-99.9,-100.00,NW,322,12.0,18.0,-999,-99.99,,,-99.99,,2013-03-04 17:52:00,
2013-03-04 13:22:00,-999.0,-99.9,-100.00,NW,309,6.0,18.0,-999,-99.99,,,-99.99,,2013-03-04 18:22:00,
2013-03-04 13:33:00,-999.0,-99.9,-100.00,NW,309,6.0,18.0,-999,-99.99,,,-99.99,,2013-03-04 18:33:00,
2013-03-04 13:43:00,-999.0,-99.9,-100.00,NW,309,6.0,18.0,-999,-99.99,,,-99.99,,2013-03-04 18:43:00,
2013-03-04 13:52:00,-999.0,-99.9,-100.00,NW,309,6.0,18.0,-999,-99.99,,,-99.99,,2013-03-04 18:52:00,
2013-03-04 14:22:00,-999.0,-99.9,-100.00,WNW,282,10.0,21.0,-999,-99.99,,,-99.99,,2013-03-04 19:22:00,
2013-03-04 14:32:00,-999.0,-99.9,-100.00,WNW,282,10.0,21.0,-999,-99.99,,,-99.99,,2013-03-04 19:32:00,
2013-03-04 14:42:00,-999.0,-99.9,-100.00,WNW,282,10.0,21.0,-999,-99.99,,,-99.99,,2013-03-04 19:42:00,
2013-03-04 14:52:00,-999.0,-99.9,-100.00,WNW,282,10.0,21.0,-999,-99.99,,,-99.99,,2013-03-04 19:52:00,
2013-03-04 14:53:00,-999.0,-99.9,-100.00,WNW,288,4.0,21.0,-999,-99.99,,,-99.99,,2013-03-04 19:53:00,
2013-03-04 15:22:00,-999.0,-99.9,-100.00,WNW,288,4.0,21.0,-999,-99.99,,,-99.99,,2013-03-04 20:22:00,
2013-03-04 15:33:00,-999.0,-99.9,-100.00,WNW,288,4.0,21.0,-999,-99.99,,,-99.99,,2013-03-04 20:33:00,
2013-03-04 15:42:00,-999.0,-99.9,-100.00,WNW,288,4.0,21.0,-999,-99.99,,,-99.99,,2013-03-04 20:42:00,
2013-03-04 15:53:00,-999.0,-99.9,-100.00,NE,44,7.0,12.0,-999,-99.99,,,-99.99,,2013-03-04 20:53:00,
2013-03-04 16:22:00,-999.0,-99.9,-100.00,NE,44,7.0,12.0,-999,-99.99,,,-99.99,,2013-03-04 21:22:00,
2013-03-04 16:33:00,-999.0,-99.9,-100.00,NE,44,7.0,12.0,-999,-99.99,,,-99.99,,2013-03-04 21:33:00,
2013-03-04 16:43:00,-999.0,-99.9,-100.00,NE,44,7.0,12.0,-999,-99.99,,,-99.99,,2013-03-04 21:43:00,
2013-03-04 17:53:00,-999.0,-99.9,-100.00,WNW,302,11.0,12.0,-999,-99.99,,,-99.99,,2013-03-04 22:53:00,
2013-03-04 18:22:00,-999.0,-99.9,-100.00,WNW,302,11.0,12.0,-999,-99.99,,,-99.99,,2013-03-04 23:22:00,
2013-03-04 18:32:00,-999.0,-99.9,-100.00,WNW,302,11.0,12.0,-999,-99.99,,,-99.99,,2013-03-04 23:32:00,
2013-03-04 18:42:00,-999.0,-99.9,-100.00,WNW,302,11.0,12.0,-999,-99.99,,,-99.99,,2013-03-04 23:42:00,
2013-03-04 19:33:00,-999.0,-99.9,-100.00,North,-999,3.0,14.0,-999,-99.99,,,-99.99,,2013-03-05 00:33:00,
2013-03-04 19:42:00,-999.0,-99.9,-100.00,North,-999,3.0,14.0,-999,-99.99,,,-99.99,,2013-03-05 00:42:00,
2013-03-04 19:52:00,-999.0,-99.9,-100.00,North,-999,3.0,14.0,-999,-99.99,,,-99.99,,2013-03-05 00:52:00,
2013-03-04 20:22:00,-999.0,-99.9,-100.00,NNW,346,5.0,11.0,-999,-99.99,,,-99.99,,2013-03-05 01:22:00,
2013-03-04 20:33:00,-999.0,-99.9,-100.00,NNW,346,5.0,11.0,-999,-99.99,,,-99.99,,2013-03-05 01:33:00,
2013-03-04 20:42:00,-999.0,-99.9,-100.00,NNW,346,5.0,11.0,-999,-99.99,,,-99.99,,2013-03-05 01:42:00,
2013-03-04 20:52:00,-999.0,-99.9,-100.00,NNW,346,5.0,11.0,-999,-99.99,,,-99.99,,2013-03-05 01:52:00,
2013-03-04 20:53:00,-999.0,-99.9,-100.00,NW,306,7.0,10.0,-999,-99.99,,,-99.99,,2013-03-05 01:53:00,
2013-03-04 21:22:00,-999.0,-99.9,-100.00,NW,306,7.0,10.0,-999,-99.99,,,-99.99,,2013-03-05 02:22:00,
2013-03-04 21:33:00,-999.0,-99.9,-100.00,NW,306,7.0,10.0,-999,-99.99,,,-99.99,,2013-03-05 02:33:00,
2013-03-04 21:42:00,-999.0,-99.9,-100.00,NW,306,7.0,10.0,-999,-99.99,,,-99.99,,2013-03-05 02:42:00,
2013-03-04 22:22:00,-999.0,-99.9,-100.00,North,352,7.0,20.0,-999,-99.99,,,-99.99,,2013-03-05 03:22:00,
2013-03-04 22:32:00,-999.0,-99.9,-100.00,North,352,7.0,20.0,-999,-99.99,,,-99.99,,2013-03-05 03:32:00,
2013-03-04 22:42:00,-999.0,-99.9,-100.00,North,352,7.0,20.0,-999,-99.99,,,-99.99,,2013-03-05 03:42:00,
2013-03-04 22:52:00,-999.0,-99.9,-100.00,North,352,7.0,20.0,-999,-99.99,,,-99.99,,2013-03-05 03:52:00,
2013-03-04 23:22:00,-999.0,-99.9,-100.00,NW,325,11.0,14.0,-999,-99.99,,,-99.99,,2013-03-05 04:22:00,
2013-03-04 23:32:00,-999.0,-99.9,-100.00,NW,325,11.0,14.0,-999,-99.99,,,-99.99,,2013-03-05 04:32:00,
2013-03-04 23:42:00,-999.0,-99.9,-100.00,NW,325,11.0,14.0,-999,-99.99,,,-99.99,,2013-03-05 04:42:00,
2013-03-04 23:52:00,-999.0,-99.9,-100.00,NW,325,11.0,14.0,-999,-99.99,,,-99.99,,2013-03-05 04:52:00,